createdAt,value
2019-03-13T00:00:17.224Z,11.50
2019-03-13T00:02:45.683Z,11.40
2019-03-13T00:05:14.550Z,11.40
2019-03-13T00:07:43.000Z,11.40
2019-03-13T00:10:12.289Z,11.30
2019-03-13T00:12:40.746Z,11.20
2019-03-13T00:15:13.808Z,11.10
2019-03-13T00:17:42.367Z,11.00
2019-03-13T00:20:11.602Z,10.90
2019-03-13T00:22:40.070Z,10.80
2019-03-13T00:25:09.122Z,10.90
2019-03-13T00:27:37.680Z,10.80
2019-03-13T00:30:08.718Z,10.90
2019-03-13T00:32:37.194Z,10.90
2019-03-13T00:35:07.074Z,10.80
2019-03-13T00:37:35.506Z,10.80
2019-03-13T00:40:06.570Z,10.80
2019-03-13T00:42:34.997Z,10.80
2019-03-13T00:45:04.292Z,10.80
2019-03-13T00:47:32.723Z,10.80
2019-03-13T00:50:01.179Z,10.80
2019-03-13T00:52:29.611Z,10.70
2019-03-13T00:54:58.075Z,10.60
2019-03-13T00:57:26.751Z,10.30
2019-03-13T00:59:55.207Z,10.00
2019-03-13T01:02:31.278Z,9.70
2019-03-13T01:05:07.299Z,9.50
2019-03-13T01:07:35.810Z,9.30
2019-03-13T01:10:06.710Z,9.20
2019-03-13T01:12:35.143Z,9.20
2019-03-13T01:15:05.714Z,9.10
2019-03-13T01:17:34.223Z,8.90
2019-03-13T01:20:02.718Z,8.80
2019-03-13T01:22:31.181Z,8.70
2019-03-13T01:24:59.626Z,8.60
2019-03-13T01:27:28.062Z,8.50
2019-03-13T01:29:56.519Z,8.40
2019-03-13T01:32:32.503Z,8.40
2019-03-13T01:35:02.683Z,8.40
2019-03-13T01:37:31.182Z,8.40
2019-03-13T01:39:59.670Z,8.40
2019-03-13T01:42:29.071Z,8.40
2019-03-13T01:44:57.503Z,8.30
2019-03-13T01:47:25.956Z,8.30
2019-03-13T01:49:54.385Z,8.30
2019-03-13T01:52:22.839Z,8.20
2019-03-13T01:54:51.338Z,8.20
2019-03-13T01:57:19.801Z,8.30
2019-03-13T01:59:48.236Z,8.40
2019-03-13T02:02:16.702Z,8.50
2019-03-13T02:04:45.141Z,8.60
2019-03-13T02:07:13.586Z,8.70
2019-03-13T02:09:42.014Z,8.70
2019-03-13T02:12:10.467Z,8.70
2019-03-13T02:14:38.904Z,8.70
2019-03-13T02:17:07.427Z,8.70
2019-03-13T02:19:35.858Z,8.70
2019-03-13T02:22:04.528Z,8.70
2019-03-13T02:24:33.075Z,8.70
2019-03-13T02:27:01.527Z,8.60
2019-03-13T02:29:29.956Z,8.60
2019-03-13T02:31:58.407Z,8.60
2019-03-13T02:34:26.845Z,8.60
2019-03-13T02:36:55.295Z,8.60
2019-03-13T02:39:23.751Z,8.60
2019-03-13T02:41:52.203Z,8.50
2019-03-13T02:44:20.704Z,8.50
2019-03-13T02:46:49.152Z,8.60
2019-03-13T02:49:17.604Z,8.60
2019-03-13T02:51:46.063Z,8.60
2019-03-13T02:54:14.557Z,8.60
2019-03-13T02:56:43.090Z,8.50
2019-03-13T02:59:11.615Z,8.40
2019-03-13T03:01:41.686Z,8.30
2019-03-13T03:04:10.286Z,8.30
2019-03-13T03:06:38.811Z,8.20
2019-03-13T03:09:07.917Z,8.10
2019-03-13T03:11:36.455Z,8.10
2019-03-13T03:14:05.438Z,8.10
2019-03-13T03:16:34.031Z,8.10
2019-03-13T03:19:02.481Z,8.10
2019-03-13T03:21:30.987Z,8.10
2019-03-13T03:23:59.556Z,8.10
2019-03-13T03:26:27.982Z,8.20
2019-03-13T03:28:56.475Z,8.30
2019-03-13T03:31:25.008Z,8.30
2019-03-13T03:34:00.987Z,8.40
2019-03-13T03:36:29.851Z,8.40
2019-03-13T03:38:58.295Z,8.40
2019-03-13T03:41:26.808Z,8.40
2019-03-13T03:43:55.255Z,8.50
2019-03-13T03:46:23.782Z,8.50
2019-03-13T03:48:52.311Z,8.50
2019-03-13T03:51:20.814Z,8.50
2019-03-13T03:53:49.337Z,8.50
2019-03-13T03:56:18.152Z,8.60
2019-03-13T03:58:46.717Z,8.70
2019-03-13T04:01:15.170Z,8.80
2019-03-13T04:03:43.626Z,8.80
2019-03-13T04:06:12.489Z,8.80
2019-03-13T04:08:40.923Z,8.80
2019-03-13T04:11:09.451Z,8.70
2019-03-13T04:13:37.947Z,8.70
2019-03-13T04:16:06.438Z,8.70
2019-03-13T04:18:34.899Z,8.60
2019-03-13T04:21:03.344Z,8.50
2019-03-13T04:23:31.781Z,8.50
2019-03-13T04:26:00.295Z,8.40
2019-03-13T04:28:28.729Z,8.30
2019-03-13T04:30:57.269Z,8.30
2019-03-13T04:33:28.211Z,8.30
2019-03-13T04:35:56.056Z,8.30
2019-03-13T04:38:24.492Z,8.30
2019-03-13T04:40:52.936Z,8.40
2019-03-13T04:43:21.370Z,8.40
2019-03-13T04:45:49.909Z,8.40
2019-03-13T04:48:18.431Z,8.40
2019-03-13T04:50:46.950Z,8.50
2019-03-13T04:53:15.449Z,8.50
2019-03-13T04:55:43.907Z,8.60
2019-03-13T04:58:12.339Z,8.70
2019-03-13T05:00:40.828Z,8.70
2019-03-13T05:03:09.256Z,8.70
2019-03-13T05:05:48.632Z,8.70
2019-03-13T05:08:26.362Z,8.60
2019-03-13T05:10:54.815Z,8.60
2019-03-13T05:13:23.242Z,8.50
2019-03-13T05:15:51.715Z,8.50
2019-03-13T05:18:20.212Z,8.50
2019-03-13T05:20:48.708Z,8.50
2019-03-13T05:23:17.178Z,8.60
2019-03-13T05:25:45.679Z,8.60
2019-03-13T05:28:14.237Z,8.60
2019-03-13T05:30:42.838Z,8.60
2019-03-13T05:33:11.271Z,8.50
2019-03-13T05:35:39.723Z,8.50
2019-03-13T05:38:08.250Z,8.50
2019-03-13T05:40:36.744Z,8.50
2019-03-13T05:43:05.191Z,8.50
2019-03-13T05:45:33.707Z,8.60
2019-03-13T05:48:02.235Z,8.60
2019-03-13T05:50:31.713Z,8.60
2019-03-13T05:53:00.377Z,8.70
2019-03-13T05:55:28.871Z,8.70
2019-03-13T05:57:57.373Z,8.70
2019-03-13T06:00:27.515Z,8.80
2019-03-13T06:02:56.500Z,8.80
2019-03-13T06:05:25.002Z,8.80
2019-03-13T06:07:53.810Z,8.80
2019-03-13T06:10:22.427Z,8.80
2019-03-13T06:12:50.899Z,8.90
2019-03-13T06:15:19.356Z,8.80
2019-03-13T06:17:47.890Z,8.80
2019-03-13T06:20:17.272Z,8.70
2019-03-13T06:22:45.831Z,8.50
2019-03-13T06:25:15.021Z,8.30
2019-03-13T06:27:46.079Z,8.10
2019-03-13T06:30:18.679Z,7.70
2019-03-13T06:32:47.256Z,7.60
2019-03-13T06:35:15.848Z,7.50
2019-03-13T06:37:44.450Z,7.20
2019-03-13T06:40:15.495Z,7.10
2019-03-13T06:42:43.956Z,6.80
2019-03-13T06:45:14.226Z,6.70
2019-03-13T06:47:42.761Z,6.60
2019-03-13T06:50:16.515Z,6.50
2019-03-13T06:52:45.007Z,6.40
2019-03-13T06:55:13.549Z,6.40
2019-03-13T06:57:42.064Z,6.40
2019-03-13T07:00:30.587Z,6.50
2019-03-13T07:03:15.743Z,6.70
2019-03-13T07:05:57.400Z,6.80
2019-03-13T07:08:27.494Z,7.00
2019-03-13T07:11:13.952Z,7.10
2019-03-13T07:13:46.975Z,7.30
2019-03-13T07:16:33.067Z,7.60
2019-03-13T07:19:17.823Z,8.00
2019-03-13T07:21:53.630Z,8.40
2019-03-13T07:24:23.733Z,8.90
2019-03-13T07:27:09.900Z,9.40
2019-03-13T07:29:56.311Z,10.00
2019-03-13T07:32:44.654Z,10.80
2019-03-13T07:35:14.827Z,11.40
2019-03-13T07:37:44.924Z,11.80
2019-03-13T07:40:21.043Z,12.20
2019-03-13T07:43:00.028Z,12.30
2019-03-13T07:45:30.131Z,12.00
2019-03-13T07:48:02.678Z,11.80
2019-03-13T07:50:38.825Z,11.50
2019-03-13T07:53:08.954Z,11.20
2019-03-13T07:55:48.108Z,11.10
2019-03-13T07:58:34.947Z,11.10
2019-03-13T08:01:11.091Z,11.10
2019-03-13T08:06:44.955Z,11.00
2019-03-13T08:09:17.850Z,10.80
2019-03-13T08:12:03.394Z,10.50
2019-03-13T08:14:49.517Z,10.20
2019-03-13T08:17:31.673Z,10.00
2019-03-13T08:20:01.775Z,9.90
2019-03-13T08:22:48.024Z,10.00
2019-03-13T08:25:24.109Z,10.30
2019-03-13T08:27:54.177Z,10.80
2019-03-13T08:30:35.888Z,11.30
2019-03-13T08:33:11.511Z,11.80
2019-03-13T08:35:50.359Z,12.30
2019-03-13T08:38:20.508Z,12.30
2019-03-13T08:40:50.607Z,12.10
2019-03-13T08:43:32.871Z,11.80
2019-03-13T08:46:02.951Z,11.50
2019-03-13T08:48:33.057Z,11.40
2019-03-13T08:51:20.471Z,11.30
2019-03-13T08:53:59.358Z,11.20
2019-03-13T08:56:32.156Z,11.10
2019-03-13T08:59:02.252Z,11.10
2019-03-13T09:01:45.704Z,11.10
2019-03-13T09:04:32.078Z,11.00
2019-03-13T09:07:04.972Z,10.60
2019-03-13T09:09:51.295Z,10.20
2019-03-13T09:12:37.611Z,10.00
2019-03-13T09:15:26.895Z,10.00
2019-03-13T09:18:09.018Z,10.10
2019-03-13T09:20:42.088Z,10.00
2019-03-13T09:23:12.196Z,9.90
2019-03-13T09:25:42.295Z,9.90
2019-03-13T09:28:18.351Z,9.80
2019-03-13T09:30:54.153Z,9.80
2019-03-13T09:33:24.229Z,9.60
2019-03-13T09:36:10.637Z,9.60
2019-03-13T09:38:49.816Z,9.60
2019-03-13T09:41:35.052Z,9.80
2019-03-13T09:44:13.886Z,9.90
2019-03-13T09:46:44.063Z,10.00
2019-03-13T09:49:20.076Z,10.10
2019-03-13T09:52:06.950Z,10.10
2019-03-13T09:54:45.898Z,10.00
2019-03-13T09:57:28.361Z,9.90
2019-03-13T10:00:07.346Z,9.70
2019-03-13T10:02:40.071Z,9.70
2019-03-13T10:05:25.567Z,9.70
2019-03-13T10:07:55.665Z,9.70
2019-03-13T10:10:34.474Z,9.60
2019-03-13T10:13:10.223Z,9.60
2019-03-13T10:15:58.085Z,9.60
2019-03-13T10:18:34.231Z,9.50
2019-03-13T10:21:06.975Z,9.50
2019-03-13T10:23:37.151Z,9.60
2019-03-13T10:26:25.390Z,9.60
2019-03-13T10:29:01.453Z,9.60
2019-03-13T10:31:49.998Z,9.80
2019-03-13T10:34:36.690Z,9.90
2019-03-13T10:37:23.721Z,10.10
2019-03-13T10:39:53.882Z,10.20
2019-03-13T10:42:40.523Z,10.10
2019-03-13T10:45:11.431Z,10.00
2019-03-13T10:47:44.369Z,10.10
2019-03-13T10:50:15.296Z,10.20
2019-03-13T10:52:45.448Z,10.40
2019-03-13T10:55:30.527Z,10.50
2019-03-13T10:58:03.799Z,10.50
2019-03-13T11:00:49.942Z,10.70
2019-03-13T11:03:20.077Z,10.90
2019-03-13T11:05:50.152Z,11.10
2019-03-13T11:08:26.540Z,11.40
2019-03-13T11:10:56.619Z,11.70
2019-03-13T11:13:32.498Z,11.80
2019-03-13T11:16:11.320Z,11.90
2019-03-13T11:18:41.497Z,12.10
2019-03-13T11:21:11.563Z,12.40
2019-03-13T11:23:50.350Z,12.50
2019-03-13T11:26:20.550Z,12.50
2019-03-13T11:29:02.673Z,12.50
2019-03-13T11:31:44.671Z,12.40
2019-03-13T11:34:23.613Z,12.30
2019-03-13T11:36:53.713Z,12.20
2019-03-13T11:39:39.038Z,12.00
2019-03-13T11:42:20.948Z,11.90
2019-03-13T11:45:07.079Z,11.80
2019-03-13T11:47:42.221Z,11.80
2019-03-13T11:50:12.208Z,11.80
2019-03-13T11:52:51.431Z,11.90
2019-03-13T11:55:21.542Z,12.00
2019-03-13T11:58:08.249Z,11.90
2019-03-13T12:00:55.120Z,11.80
2019-03-13T12:03:30.978Z,11.70
2019-03-13T12:06:06.360Z,11.50
2019-03-13T12:08:47.984Z,11.50
2019-03-13T12:11:34.354Z,11.40
2019-03-13T12:14:22.884Z,11.30
2019-03-13T12:16:55.909Z,11.20
2019-03-13T12:19:32.019Z,11.10
2019-03-13T12:22:20.320Z,10.90
2019-03-13T12:25:06.392Z,10.70
2019-03-13T12:27:52.612Z,10.70
2019-03-13T12:30:22.776Z,10.70
2019-03-13T12:32:52.885Z,10.70
2019-03-13T12:35:35.205Z,10.50
2019-03-13T12:38:05.366Z,10.50
2019-03-13T12:40:44.166Z,10.50
2019-03-13T12:43:19.852Z,10.50
2019-03-13T12:46:08.052Z,10.60
2019-03-13T12:48:56.757Z,10.70
2019-03-13T12:51:36.092Z,10.70
2019-03-13T12:54:09.403Z,10.60
2019-03-13T12:56:42.223Z,10.60
2019-03-13T12:59:21.571Z,10.60
2019-03-13T13:01:51.686Z,10.70
2019-03-13T13:04:30.883Z,10.70
2019-03-13T13:07:03.374Z,10.60
2019-03-13T13:09:49.744Z,10.60
2019-03-13T13:12:19.828Z,10.60
2019-03-13T13:14:52.736Z,10.50
2019-03-13T13:17:22.810Z,10.50
2019-03-13T13:19:51.343Z,10.50
2019-03-13T13:22:19.781Z,10.50
2019-03-13T13:24:48.333Z,10.50
2019-03-13T13:27:17.728Z,10.40
2019-03-13T13:29:46.260Z,10.50
2019-03-13T13:32:14.738Z,10.40
2019-03-13T13:34:43.230Z,10.50
2019-03-13T13:37:11.672Z,10.40
2019-03-13T13:39:40.138Z,10.30
2019-03-13T13:42:08.627Z,10.30
2019-03-13T13:44:37.158Z,10.30
2019-03-13T13:47:05.608Z,10.50
2019-03-13T13:49:34.080Z,10.50
2019-03-13T13:52:02.596Z,10.40
2019-03-13T13:54:31.054Z,10.50
2019-03-13T13:56:59.515Z,10.40
2019-03-13T13:59:27.992Z,10.40
2019-03-13T14:01:56.435Z,10.50
2019-03-13T14:04:24.888Z,10.60
2019-03-13T14:06:53.351Z,10.60
2019-03-13T14:09:21.817Z,10.70
2019-03-13T14:11:50.247Z,10.60
2019-03-13T14:14:18.720Z,10.50
2019-03-13T14:16:47.172Z,10.40
2019-03-13T14:19:15.708Z,10.30
2019-03-13T14:21:44.146Z,10.20
2019-03-13T14:24:17.208Z,10.30
2019-03-13T14:26:45.219Z,10.30
2019-03-13T14:29:13.732Z,10.40
2019-03-13T14:31:42.283Z,10.40
2019-03-13T14:34:10.714Z,10.40
2019-03-13T14:36:39.316Z,10.40
2019-03-13T14:39:08.325Z,10.40
2019-03-13T14:41:38.670Z,10.40
2019-03-13T14:44:07.181Z,10.30
2019-03-13T14:46:35.626Z,10.30
2019-03-13T14:49:04.067Z,10.40
2019-03-13T14:51:32.545Z,10.50
2019-03-13T14:54:01.007Z,10.40
2019-03-13T14:56:29.450Z,10.40
2019-03-13T14:58:57.898Z,10.30
2019-03-13T15:01:26.511Z,10.30
2019-03-13T15:03:54.980Z,10.30
2019-03-13T15:06:23.508Z,10.20
2019-03-13T15:08:52.013Z,10.10
2019-03-13T15:11:20.479Z,10.00
2019-03-13T15:13:48.936Z,10.10
2019-03-13T15:16:17.402Z,10.10
2019-03-13T15:18:45.866Z,10.20
2019-03-13T15:21:14.350Z,10.10
2019-03-13T15:23:42.851Z,10.00
2019-03-13T15:26:11.403Z,10.00
2019-03-13T15:28:39.870Z,10.10
2019-03-13T15:31:08.315Z,10.10
2019-03-13T15:33:36.851Z,10.10
2019-03-13T15:36:05.314Z,10.10
2019-03-13T15:38:33.852Z,10.00
2019-03-13T15:41:02.324Z,10.10
2019-03-13T15:43:30.765Z,10.20
2019-03-13T15:45:59.216Z,10.20
2019-03-13T15:48:47.012Z,10.10
2019-03-13T15:51:15.513Z,10.10
2019-03-13T15:53:44.011Z,10.00
2019-03-13T15:56:12.471Z,10.00
2019-03-13T15:58:41.008Z,10.00
2019-03-13T16:01:09.467Z,9.90
2019-03-13T16:03:38.019Z,10.00
2019-03-13T16:06:06.462Z,10.00
2019-03-13T16:08:34.896Z,10.00
2019-03-13T16:11:03.461Z,10.00
2019-03-13T16:13:31.899Z,10.00
2019-03-13T16:16:00.572Z,10.00
2019-03-13T16:18:30.455Z,10.00
2019-03-13T16:20:58.923Z,9.90
2019-03-13T16:23:29.352Z,9.90
2019-03-13T16:25:57.656Z,10.00
2019-03-13T16:28:26.238Z,10.00
2019-03-13T16:30:56.232Z,10.00
2019-03-13T16:33:24.841Z,10.00
2019-03-13T16:35:53.299Z,10.00
2019-03-13T16:38:21.871Z,10.00
2019-03-13T16:40:50.355Z,10.10
2019-03-13T16:43:20.362Z,10.10
2019-03-13T16:45:48.925Z,10.10
2019-03-13T16:48:17.724Z,10.20
2019-03-13T16:50:46.359Z,10.10
2019-03-13T16:53:14.803Z,10.10
2019-03-13T16:55:43.319Z,10.10
2019-03-13T16:58:11.791Z,10.10
2019-03-13T17:00:40.319Z,10.10
2019-03-13T17:03:09.099Z,10.20
2019-03-13T17:05:37.615Z,10.20
2019-03-13T17:08:06.145Z,10.30
2019-03-13T17:10:34.580Z,10.30
2019-03-13T17:13:05.438Z,10.30
2019-03-13T17:15:33.662Z,10.30
2019-03-13T17:18:02.121Z,10.30
2019-03-13T17:20:43.671Z,10.30
2019-03-13T17:23:12.131Z,10.30
2019-03-13T17:25:40.642Z,10.30
2019-03-13T17:28:09.204Z,10.30
2019-03-13T17:30:39.483Z,10.20
2019-03-13T17:33:08.071Z,10.20
2019-03-13T17:35:36.531Z,10.20
2019-03-13T17:38:05.070Z,10.20
2019-03-13T17:40:34.062Z,10.20
2019-03-13T17:45:32.590Z,10.10
2019-03-13T17:48:01.088Z,10.20
2019-03-13T17:50:29.603Z,10.20
2019-03-13T17:52:58.490Z,10.30
2019-03-13T17:55:27.927Z,10.30
2019-03-13T17:57:56.486Z,10.30
2019-03-13T18:00:36.931Z,10.30
2019-03-13T18:03:05.943Z,10.30
2019-03-13T18:05:34.610Z,10.30
2019-03-13T18:08:04.126Z,10.30
2019-03-13T18:10:32.592Z,10.20
2019-03-13T18:13:01.076Z,10.20
2019-03-13T18:15:29.511Z,10.20
2019-03-13T18:17:57.996Z,10.20
2019-03-13T18:20:27.509Z,10.20
2019-03-13T18:22:56.017Z,10.20
2019-03-13T18:25:24.474Z,10.20
2019-03-13T18:27:52.935Z,10.20
2019-03-13T18:30:37.107Z,10.20
2019-03-13T18:33:05.791Z,10.10
2019-03-13T18:35:34.348Z,10.10
2019-03-13T18:38:03.312Z,10.10
2019-03-13T18:40:31.984Z,10.10
2019-03-13T18:43:00.955Z,10.20
2019-03-13T18:45:33.829Z,10.20
2019-03-13T18:48:02.459Z,10.00
2019-03-13T18:50:30.970Z,10.00
2019-03-13T18:52:59.494Z,10.00
2019-03-13T18:55:49.087Z,9.90
2019-03-13T18:58:17.933Z,9.80
2019-03-13T19:00:46.546Z,9.70
2019-03-13T19:03:15.011Z,9.60
2019-03-13T19:05:43.474Z,9.40
2019-03-13T19:08:11.963Z,9.30
2019-03-13T19:10:40.482Z,9.20
2019-03-13T19:13:09.053Z,9.10
2019-03-13T19:15:40.144Z,8.90
2019-03-13T19:18:07.876Z,8.70
2019-03-13T19:20:36.724Z,8.60
2019-03-13T19:23:05.220Z,8.60
2019-03-13T19:25:33.857Z,8.60
2019-03-13T19:28:02.376Z,8.50
2019-03-13T19:30:32.380Z,8.50
2019-03-13T19:33:00.943Z,8.60
2019-03-13T19:35:29.764Z,8.80
2019-03-13T19:38:01.469Z,8.90
2019-03-13T19:40:30.191Z,9.00
2019-03-13T19:42:59.021Z,9.10
2019-03-13T19:45:39.410Z,9.10
2019-03-13T19:48:07.961Z,9.10
2019-03-13T19:50:36.493Z,9.10
2019-03-13T19:53:05.534Z,9.00
2019-03-13T19:55:34.217Z,8.90
2019-03-13T19:58:02.726Z,8.80
2019-03-13T20:00:31.184Z,8.80
2019-03-13T20:03:02.807Z,8.70
2019-03-13T20:05:44.202Z,8.70
2019-03-13T20:08:01.874Z,8.50
2019-03-13T20:10:31.668Z,8.40
2019-03-13T20:13:00.159Z,8.40
2019-03-13T20:15:32.835Z,8.30
2019-03-13T20:18:01.327Z,8.20
2019-03-13T20:20:30.247Z,8.10
2019-03-13T20:23:04.535Z,7.90
2019-03-13T20:25:33.379Z,7.90
2019-03-13T20:28:01.882Z,7.90
2019-03-13T20:30:30.467Z,7.90
2019-03-13T20:32:58.925Z,8.10
2019-03-13T20:35:27.501Z,8.20
2019-03-13T20:37:55.975Z,8.30
2019-03-13T20:40:27.511Z,8.50
2019-03-13T20:42:56.137Z,8.50
2019-03-13T20:45:29.513Z,8.50
2019-03-13T20:47:58.303Z,8.70
2019-03-13T20:50:36.476Z,8.70
2019-03-13T20:52:57.557Z,8.70
2019-03-13T20:55:26.396Z,8.80
2019-03-13T20:57:55.336Z,8.50
2019-03-13T21:00:25.083Z,8.60
2019-03-13T21:02:55.244Z,8.60
2019-03-13T21:05:23.993Z,8.60
2019-03-13T21:07:53.530Z,8.60
2019-03-13T21:10:22.423Z,8.60
2019-03-13T21:12:50.877Z,8.60
2019-03-13T21:15:21.939Z,8.70
2019-03-13T21:17:50.556Z,8.70
2019-03-13T21:20:19.727Z,8.70
2019-03-13T21:22:48.195Z,8.80
2019-03-13T21:25:18.000Z,8.80
2019-03-13T21:27:48.049Z,8.80
2019-03-13T21:30:19.474Z,8.90
2019-03-13T21:32:48.029Z,9.00
2019-03-13T21:35:16.681Z,9.00
2019-03-13T21:37:45.128Z,9.10
2019-03-13T21:40:15.982Z,9.10
2019-03-13T21:42:44.521Z,9.10
2019-03-13T21:45:22.382Z,9.20
2019-03-13T21:47:44.279Z,9.20
2019-03-13T21:50:14.806Z,9.30
2019-03-13T21:52:43.260Z,9.30
2019-03-13T21:55:16.355Z,9.20
2019-03-13T21:57:44.846Z,9.20
2019-03-13T22:00:26.609Z,9.00
2019-03-13T22:02:55.518Z,8.90
2019-03-13T22:05:27.068Z,8.90
2019-03-13T22:07:54.657Z,8.90
2019-03-13T22:10:23.404Z,9.00
2019-03-13T22:12:52.505Z,9.00
2019-03-13T22:15:24.545Z,8.90
2019-03-13T22:17:53.075Z,8.80
2019-03-13T22:20:21.772Z,8.80
2019-03-13T22:22:52.911Z,8.70
2019-03-13T22:25:21.726Z,8.70
2019-03-13T22:27:50.277Z,8.70
2019-03-13T22:30:28.560Z,8.60
2019-03-13T22:32:55.891Z,8.70
2019-03-13T22:35:24.469Z,8.70
2019-03-13T22:37:53.042Z,8.70
2019-03-13T22:40:21.699Z,8.70
2019-03-13T22:42:50.310Z,8.80
2019-03-13T22:45:20.092Z,8.90
2019-03-13T22:47:48.811Z,8.90
2019-03-13T22:50:18.828Z,8.90
2019-03-13T22:52:47.414Z,8.70
2019-03-13T22:55:16.112Z,8.60
2019-03-13T22:57:44.548Z,8.50
2019-03-13T23:00:29.756Z,8.50
2019-03-13T23:02:58.275Z,8.50
2019-03-13T23:05:27.911Z,8.50
2019-03-13T23:07:56.401Z,8.50
2019-03-13T23:10:30.392Z,8.50
2019-03-13T23:12:59.228Z,8.40
2019-03-13T23:15:28.187Z,8.40
2019-03-13T23:17:56.724Z,8.30
2019-03-13T23:20:25.630Z,8.20
2019-03-13T23:22:56.365Z,8.10
2019-03-13T23:25:27.033Z,8.00
2019-03-13T23:27:56.032Z,8.00
2019-03-13T23:30:24.588Z,8.10
2019-03-13T23:32:53.170Z,8.10
2019-03-13T23:35:21.876Z,8.20
2019-03-13T23:37:51.250Z,8.20
2019-03-13T23:40:19.730Z,8.20
2019-03-13T23:42:48.171Z,8.20
2019-03-13T23:45:16.823Z,8.20
2019-03-13T23:47:45.291Z,8.20
2019-03-13T23:50:14.495Z,8.20
2019-03-13T23:52:42.980Z,8.30
2019-03-13T23:55:11.655Z,8.30
2019-03-13T23:57:40.132Z,8.30
